Safety Harbor, Florida
Current Conditions -  °F | °C
As of 8:35 AM on Tuesday 21 Oct 2014 (Local Time) from KCLW Reporting Station
Clear Clear  
Wind Chill: 70°   Ceiling: Unl
Heat Index: 70°   Visibility: 10mi
Dew Point: 64°   Wind: 0mph
Humidity: 83%   Direction: NA
Pressure: 29.95"   Gusts: NA
Location:  27.99°N, 82.69°W
Report Text: KCLW 211235Z AUTO 00000KT 10SM CLR 21/18 A2995 RMK AO2
Loading
Personal Weather Stations






























Interactive Weather Map
Tropical Storm Tracking
New forecast layout! Learn more

10-Day Weather Forecast

Advertisements
Track Severe Weather on mobile